^^
Paulen-Weather Station Historical Data
Daily Summary for May 29, 2022 Units:  Both    English   Metric
Daily Weekly Monthly Yearly Custom
  High: Low: Average:
Temperature: 59 °F /  15 °C 50 °F /  10 °C 54.5 °F /  12.5 °C
Dew Point: 50 °F /  10 °C 41 °F /  5 °C 43.2 °F /  6.2 °C
Humidity: 76% 53% 65%
Wind Speed: 13mph /  21km/h - 9.3mph /  15km/h
Wind Gust: 12.4mph /  20km/h - -
Wind- - SSW
Pressure: 29.8 in /  1009.31 hPa 29.7 in /  1004.84 hPa -
Precipitation: 0 in /  0 mm    
Historical Graphs
 
 
Tabular Data for May 29, 2022
Time Temperature Dew Point Pressure Wind Wind Speed Wind Gust Humidity Rainfall Rate (Hourly) solar
00:04 53.6 °F /  12 °C 42.8 °F /  6 °C 29.8in /  1009.25hPa NNW 5.6mph /  9km/h 5.6mph /  9km/h 67% 0in /  0mm 0 W/m2
00:09 53.6 °F /  12 °C 42.8 °F /  6 °C 29.8in /  1009.28hPa N 6.2mph /  10km/h 5mph /  8km/h 64% 0in /  0mm 0 W/m2
00:14 53.6 °F /  12 °C 42.8 °F /  6 °C 29.8in /  1009.28hPa N 6.8mph /  11km/h 5.6mph /  9km/h 63% 0in /  0mm 0 W/m2
00:19 53.6 °F /  12 °C 42.8 °F /  6 °C 29.8in /  1009.28hPa N 6.2mph /  10km/h 5.6mph /  9km/h 64% 0in /  0mm 0 W/m2
00:24 53.6 °F /  12 °C 41 °F /  5 °C 29.8in /  1009.28hPa NNW 5.6mph /  9km/h 5.6mph /  9km/h 62% 0in /  0mm 0 W/m2
00:29 53.6 °F /  12 °C 41 °F /  5 °C 29.8in /  1009.31hPa NNW 5mph /  8km/h 5mph /  8km/h 60% 0in /  0mm 0 W/m2
00:34 55.4 °F /  13 °C 41 °F /  5 °C 29.8in /  1009.31hPa N 6.8mph /  11km/h 6.2mph /  10km/h 59% 0in /  0mm 0 W/m2
00:39 53.6 °F /  12 °C 41 °F /  5 °C 29.8in /  1009.28hPa N 7.5mph /  12km/h 6.8mph /  11km/h 60% 0in /  0mm 0 W/m2
00:44 53.6 °F /  12 °C 42.8 °F /  6 °C 29.8in /  1009.28hPa N 7.5mph /  12km/h 6.2mph /  10km/h 63% 0in /  0mm 0 W/m2
00:49 53.6 °F /  12 °C 42.8 °F /  6 °C 29.8in /  1009.28hPa N 6.8mph /  11km/h 6.2mph /  10km/h 66% 0in /  0mm 0 W/m2
00:54 53.6 °F /  12 °C 42.8 °F /  6 °C 29.8in /  1009.28hPa N 7.5mph /  12km/h 6.8mph /  11km/h 64% 0in /  0mm 0 W/m2
00:59 53.6 °F /  12 °C 42.8 °F /  6 °C 29.8in /  1009.25hPa N 8.1mph /  13km/h 6.8mph /  11km/h 66% 0in /  0mm 0 W/m2
01:04 53.6 °F /  12 °C 42.8 °F /  6 °C 29.8in /  1009.25hPa N 8.7mph /  14km/h 7.5mph /  12km/h 66% 0in /  0mm 0 W/m2
01:09 53.6 °F /  12 °C 42.8 °F /  6 °C 29.8in /  1009.18hPa N 9.3mph /  15km/h 8.1mph /  13km/h 66% 0in /  0mm 0 W/m2
01:14 53.6 °F /  12 °C 42.8 °F /  6 °C 29.8in /  1009.18hPa N 9.3mph /  15km/h 8.7mph /  14km/h 65% 0in /  0mm 0 W/m2
01:19 53.6 °F /  12 °C 42.8 °F /  6 °C 29.8in /  1009.11hPa N 9.9mph /  16km/h 8.7mph /  14km/h 65% 0in /  0mm 0 W/m2
01:24 53.6 °F /  12 °C 42.8 °F /  6 °C 29.8in /  1009.08hPa N 8.7mph /  14km/h 7.5mph /  12km/h 66% 0in /  0mm 0 W/m2
01:29 53.6 °F /  12 °C 42.8 °F /  6 °C 29.8in /  1009.11hPa N 8.1mph /  13km/h 6.8mph /  11km/h 68% 0in /  0mm 0 W/m2
01:34 53.6 °F /  12 °C 44.6 °F /  7 °C 29.8in /  1009.11hPa N 6.2mph /  10km/h 6.2mph /  10km/h 70% 0in /  0mm 0 W/m2
01:39 53.6 °F /  12 °C 42.8 °F /  6 °C 29.8in /  1009.04hPa N 5mph /  8km/h 4.3mph /  7km/h 70% 0in /  0mm 0 W/m2
01:44 53.6 °F /  12 °C 44.6 °F /  7 °C 29.8in /  1009.04hPa NNW 5.6mph /  9km/h 6.2mph /  10km/h 71% 0in /  0mm 0 W/m2
01:49 51.8 °F /  11 °C 42.8 °F /  6 °C 29.8in /  1009.04hPa NNW 6.2mph /  10km/h 5.6mph /  9km/h 70% 0in /  0mm 0 W/m2
01:54 51.8 °F /  11 °C 42.8 °F /  6 °C 29.8in /  1008.97hPa NNW 5.6mph /  9km/h 5.6mph /  9km/h 69% 0in /  0mm 0 W/m2
01:59 51.8 °F /  11 °C 42.8 °F /  6 °C 29.8in /  1008.97hPa NNW 5mph /  8km/h 4.3mph /  7km/h 70% 0in /  0mm 0 W/m2
02:04 51.8 °F /  11 °C 42.8 °F /  6 °C 29.8in /  1009.01hPa NNW 5mph /  8km/h 5mph /  8km/h 68% 0in /  0mm 0 W/m2
02:09 51.8 °F /  11 °C 42.8 °F /  6 °C 29.8in /  1008.97hPa N 4.3mph /  7km/h 4.3mph /  7km/h 70% 0in /  0mm 0 W/m2
02:14 51.8 °F /  11 °C 42.8 °F /  6 °C 29.8in /  1008.97hPa N 5mph /  8km/h 4.3mph /  7km/h 68% 0in /  0mm 0 W/m2
02:19 51.8 °F /  11 °C 42.8 °F /  6 °C 29.8in /  1008.97hPa N 5mph /  8km/h 3.7mph /  6km/h 68% 0in /  0mm 0 W/m2
02:24 51.8 °F /  11 °C 42.8 °F /  6 °C 29.8in /  1008.91hPa N 5mph /  8km/h 4.3mph /  7km/h 67% 0in /  0mm 0 W/m2
02:29 51.8 °F /  11 °C 42.8 °F /  6 °C 29.8in /  1008.87hPa N 5mph /  8km/h 3.7mph /  6km/h 67% 0in /  0mm 0 W/m2
02:34 51.8 °F /  11 °C 41 °F /  5 °C 29.8in /  1008.87hPa N 6.2mph /  10km/h 4.3mph /  7km/h 67% 0in /  0mm 0 W/m2
02:39 51.8 °F /  11 °C 42.8 °F /  6 °C 29.8in /  1008.81hPa N 5.6mph /  9km/h 5mph /  8km/h 67% 0in /  0mm 0 W/m2
02:44 51.8 °F /  11 °C 42.8 °F /  6 °C 29.8in /  1008.77hPa N 6.2mph /  10km/h 5.6mph /  9km/h 67% 0in /  0mm 0 W/m2
02:49 51.8 °F /  11 °C 42.8 °F /  6 °C 29.8in /  1008.74hPa NNW 8.7mph /  14km/h 8.7mph /  14km/h 68% 0in /  0mm 0 W/m2
02:54 51.8 °F /  11 °C 41 °F /  5 °C 29.8in /  1008.74hPa NNW 10.6mph /  17km/h 9.3mph /  15km/h 65% 0in /  0mm 0 W/m2
02:59 51.8 °F /  11 °C 42.8 °F /  6 °C 29.8in /  1008.74hPa NNW 8.1mph /  13km/h 7.5mph /  12km/h 67% 0in /  0mm 0 W/m2
03:04 51.8 °F /  11 °C 41 °F /  5 °C 29.8in /  1008.77hPa NNW 9.3mph /  15km/h 8.1mph /  13km/h 67% 0in /  0mm 0 W/m2
03:09 51.8 °F /  11 °C 41 °F /  5 °C 29.8in /  1008.7hPa NNW 8.7mph /  14km/h 7.5mph /  12km/h 67% 0in /  0mm 0 W/m2
03:14 51.8 °F /  11 °C 41 °F /  5 °C 29.8in /  1008.7hPa N 9.3mph /  15km/h 8.7mph /  14km/h 66% 0in /  0mm 0 W/m2
03:19 51.8 °F /  11 °C 41 °F /  5 °C 29.8in /  1008.7hPa NNW 9.3mph /  15km/h 8.7mph /  14km/h 67% 0in /  0mm 0 W/m2
03:24 51.8 °F /  11 °C 41 °F /  5 °C 29.8in /  1008.7hPa N 9.3mph /  15km/h 8.7mph /  14km/h 66% 0in /  0mm 0 W/m2
03:29 51.8 °F /  11 °C 41 °F /  5 °C 29.8in /  1008.67hPa N 9.3mph /  15km/h 8.1mph /  13km/h 67% 0in /  0mm 0 W/m2
03:34 51.8 °F /  11 °C 41 °F /  5 °C 29.8in /  1008.67hPa N 8.7mph /  14km/h 7.5mph /  12km/h 67% 0in /  0mm 0 W/m2
03:39 51.8 °F /  11 °C 41 °F /  5 °C 29.8in /  1008.67hPa NNW 9.3mph /  15km/h 8.7mph /  14km/h 69% 0in /  0mm 0 W/m2
03:44 51.8 °F /  11 °C 41 °F /  5 °C 29.8in /  1008.67hPa NNW 9.3mph /  15km/h 8.7mph /  14km/h 68% 0in /  0mm 0 W/m2
03:49 51.8 °F /  11 °C 41 °F /  5 °C 29.8in /  1008.64hPa N 8.1mph /  13km/h 8.7mph /  14km/h 68% 0in /  0mm 0 W/m2
03:54 51.8 °F /  11 °C 41 °F /  5 °C 29.8in /  1008.64hPa N 10.6mph /  17km/h 8.1mph /  13km/h 69% 0in /  0mm 0 W/m2
03:59 51.8 °F /  11 °C 41 °F /  5 °C 29.8in /  1008.57hPa NNW 9.3mph /  15km/h 7.5mph /  12km/h 69% 0in /  0mm 0 W/m2
04:04 51.8 °F /  11 °C 41 °F /  5 °C 29.8in /  1008.57hPa NNW 11.2mph /  18km/h 10.6mph /  17km/h 68% 0in /  0mm 0 W/m2
04:09 51.8 °F /  11 °C 41 °F /  5 °C 29.8in /  1008.53hPa NNW 9.9mph /  16km/h 8.7mph /  14km/h 68% 0in /  0mm 0 W/m2
04:14 51.8 °F /  11 °C 41 °F /  5 °C 29.8in /  1008.53hPa NNW 10.6mph /  17km/h 9.3mph /  15km/h 68% 0in /  0mm 0 W/m2
04:19 51.8 °F /  11 °C 41 °F /  5 °C 29.8in /  1008.57hPa NNW 10.6mph /  17km/h 8.7mph /  14km/h 69% 0in /  0mm 0 W/m2
04:24 50 °F /  10 °C 41 °F /  5 °C 29.8in /  1008.53hPa NNW 10.6mph /  17km/h 8.1mph /  13km/h 69% 0in /  0mm 0 W/m2
04:29 50 °F /  10 °C 41 °F /  5 °C 29.8in /  1008.53hPa NNW 10.6mph /  17km/h 8.7mph /  14km/h 69% 0in /  0mm 0 W/m2
04:34 50 °F /  10 °C 41 °F /  5 °C 29.8in /  1008.53hPa NNW 9.9mph /  16km/h 8.7mph /  14km/h 69% 0in /  0mm 0 W/m2
04:39 50 °F /  10 °C 41 °F /  5 °C 29.8in /  1008.57hPa N 9.9mph /  16km/h 9.3mph /  15km/h 69% 0in /  0mm 5 W/m2
04:44 50 °F /  10 °C 41 °F /  5 °C 29.8in /  1008.57hPa NNW 11.2mph /  18km/h 9.3mph /  15km/h 69% 0in /  0mm 7 W/m2
04:49 50 °F /  10 °C 41 °F /  5 °C 29.8in /  1008.57hPa N 11.8mph /  19km/h 9.9mph /  16km/h 69% 0in /  0mm 12 W/m2
04:54 50 °F /  10 °C 41 °F /  5 °C 29.8in /  1008.6hPa NNW 11.8mph /  19km/h 11.2mph /  18km/h 69% 0in /  0mm 16 W/m2
04:59 50 °F /  10 °C 41 °F /  5 °C 29.8in /  1008.57hPa N 11.8mph /  19km/h 11.2mph /  18km/h 68% 0in /  0mm 21 W/m2
05:04 50 °F /  10 °C 41 °F /  5 °C 29.8in /  1008.57hPa NNW 11.8mph /  19km/h 9.9mph /  16km/h 69% 0in /  0mm 25 W/m2
05:09 50 °F /  10 °C 41 °F /  5 °C 29.8in /  1008.53hPa NNW 11.2mph /  18km/h 10.6mph /  17km/h 69% 0in /  0mm 30 W/m2
05:14 50 °F /  10 °C 41 °F /  5 °C 29.8in /  1008.57hPa N 11.8mph /  19km/h 10.6mph /  17km/h 69% 0in /  0mm 37 W/m2
05:19 50 °F /  10 °C 41 °F /  5 °C 29.8in /  1008.6hPa NNW 11.8mph /  19km/h 9.9mph /  16km/h 69% 0in /  0mm 42 W/m2
05:24 50 °F /  10 °C 41 °F /  5 °C 29.8in /  1008.57hPa NNW 11.8mph /  19km/h 9.9mph /  16km/h 70% 0in /  0mm 49 W/m2
05:29 50 °F /  10 °C 41 °F /  5 °C 29.8in /  1008.6hPa NNW 11.2mph /  18km/h 10.6mph /  17km/h 69% 0in /  0mm 58 W/m2
05:34 50 °F /  10 °C 41 °F /  5 °C 29.8in /  1008.6hPa N 12.4mph /  20km/h 11.2mph /  18km/h 70% 0in /  0mm 65 W/m2
05:39 50 °F /  10 °C 41 °F /  5 °C 29.8in /  1008.6hPa NNW 11.2mph /  18km/h 9.9mph /  16km/h 70% 0in /  0mm 72 W/m2
05:44 50 °F /  10 °C 41 °F /  5 °C 29.8in /  1008.67hPa NNW 11.2mph /  18km/h 8.7mph /  14km/h 71% 0in /  0mm 83 W/m2
05:49 50 °F /  10 °C 41 °F /  5 °C 29.8in /  1008.77hPa NNW 11.8mph /  19km/h 11.2mph /  18km/h 71% 0in /  0mm 90 W/m2
05:54 50 °F /  10 °C 41 °F /  5 °C 29.8in /  1008.81hPa NNW 9.9mph /  16km/h 8.1mph /  13km/h 71% 0in /  0mm 98 W/m2
05:59 50 °F /  10 °C 41 °F /  5 °C 29.8in /  1008.81hPa N 10.6mph /  17km/h 8.1mph /  13km/h 71% 0in /  0mm 107 W/m2
06:04 50 °F /  10 °C 41 °F /  5 °C 29.8in /  1008.77hPa N 10.6mph /  17km/h 9.9mph /  16km/h 71% 0in /  0mm 116 W/m2
06:09 50 °F /  10 °C 41 °F /  5 °C 29.8in /  1008.77hPa NNW 11.2mph /  18km/h 8.7mph /  14km/h 70% 0in /  0mm 125 W/m2
06:14 50 °F /  10 °C 41 °F /  5 °C 29.8in /  1008.77hPa NNW 10.6mph /  17km/h 9.3mph /  15km/h 70% 0in /  0mm 135 W/m2
06:19 50 °F /  10 °C 41 °F /  5 °C 29.8in /  1008.74hPa N 9.9mph /  16km/h 9.3mph /  15km/h 70% 0in /  0mm 144 W/m2
06:24 50 °F /  10 °C 41 °F /  5 °C 29.8in /  1008.7hPa NNW 11.2mph /  18km/h 9.3mph /  15km/h 70% 0in /  0mm 153 W/m2
06:29 51.8 °F /  11 °C 41 °F /  5 °C 29.8in /  1008.74hPa N 8.7mph /  14km/h 8.7mph /  14km/h 70% 0in /  0mm 163 W/m2
06:34 51.8 °F /  11 °C 41 °F /  5 °C 29.8in /  1008.7hPa NNW 9.3mph /  15km/h 8.1mph /  13km/h 69% 0in /  0mm 174 W/m2
06:39 51.8 °F /  11 °C 41 °F /  5 °C 29.8in /  1008.7hPa NNW 9.3mph /  15km/h 8.1mph /  13km/h 70% 0in /  0mm 183 W/m2
06:44 51.8 °F /  11 °C 41 °F /  5 °C 29.8in /  1008.74hPa NNW 10.6mph /  17km/h 8.7mph /  14km/h 69% 0in /  0mm 195 W/m2
06:49 51.8 °F /  11 °C 41 °F /  5 °C 29.8in /  1008.7hPa N 8.7mph /  14km/h 7.5mph /  12km/h 69% 0in /  0mm 206 W/m2
06:54 51.8 °F /  11 °C 42.8 °F /  6 °C 29.8in /  1008.67hPa N 6.8mph /  11km/h 5.6mph /  9km/h 70% 0in /  0mm 216 W/m2
06:59 51.8 °F /  11 °C 42.8 °F /  6 °C 29.8in /  1008.74hPa NNW 8.7mph /  14km/h 7.5mph /  12km/h 69% 0in /  0mm 227 W/m2
07:04 51.8 °F /  11 °C 42.8 °F /  6 °C 29.8in /  1008.7hPa N 8.1mph /  13km/h 6.2mph /  10km/h 69% 0in /  0mm 237 W/m2
07:09 53.6 °F /  12 °C 42.8 °F /  6 °C 29.8in /  1008.7hPa N 7.5mph /  12km/h 6.2mph /  10km/h 68% 0in /  0mm 248 W/m2
07:14 53.6 °F /  12 °C 42.8 °F /  6 °C 29.8in /  1008.7hPa N 7.5mph /  12km/h 6.8mph /  11km/h 67% 0in /  0mm 262 W/m2
07:19 53.6 °F /  12 °C 42.8 °F /  6 °C 29.8in /  1008.67hPa N 8.7mph /  14km/h 6.8mph /  11km/h 66% 0in /  0mm 271 W/m2
07:24 53.6 °F /  12 °C 42.8 °F /  6 °C 29.8in /  1008.64hPa N 10.6mph /  17km/h 9.3mph /  15km/h 65% 0in /  0mm 283 W/m2
07:29 53.6 °F /  12 °C 42.8 °F /  6 °C 29.8in /  1008.57hPa N 9.3mph /  15km/h 8.1mph /  13km/h 65% 0in /  0mm 295 W/m2
07:34 53.6 °F /  12 °C 42.8 °F /  6 °C 29.8in /  1008.6hPa N 9.9mph /  16km/h 8.7mph /  14km/h 65% 0in /  0mm 306 W/m2
07:39 53.6 °F /  12 °C 41 °F /  5 °C 29.8in /  1008.57hPa N 10.6mph /  17km/h 8.7mph /  14km/h 64% 0in /  0mm 316 W/m2
07:44 53.6 °F /  12 °C 42.8 °F /  6 °C 29.8in /  1008.53hPa N 9.3mph /  15km/h 8.1mph /  13km/h 65% 0in /  0mm 329 W/m2
07:49 53.6 °F /  12 °C 42.8 °F /  6 °C 29.8in /  1008.5hPa N 11.2mph /  18km/h 9.9mph /  16km/h 65% 0in /  0mm 339 W/m2
07:54 53.6 °F /  12 °C 41 °F /  5 °C 29.8in /  1008.47hPa N 11.8mph /  19km/h 9.9mph /  16km/h 64% 0in /  0mm 350 W/m2
07:59 53.6 °F /  12 °C 41 °F /  5 °C 29.8in /  1008.4hPa N 11.8mph /  19km/h 9.9mph /  16km/h 64% 0in /  0mm 362 W/m2
08:04 53.6 °F /  12 °C 41 °F /  5 °C 29.8in /  1008.43hPa N 11.2mph /  18km/h 9.3mph /  15km/h 63% 0in /  0mm 373 W/m2
08:09 53.6 °F /  12 °C 41 °F /  5 °C 29.8in /  1008.43hPa N 11.2mph /  18km/h 9.3mph /  15km/h 64% 0in /  0mm 383 W/m2
08:14 53.6 °F /  12 °C 42.8 °F /  6 °C 29.8in /  1008.47hPa N 9.9mph /  16km/h 8.7mph /  14km/h 64% 0in /  0mm 396 W/m2
08:19 53.6 °F /  12 °C 42.8 °F /  6 °C 29.8in /  1008.53hPa N 9.3mph /  15km/h 6.8mph /  11km/h 65% 0in /  0mm 406 W/m2
08:24 55.4 °F /  13 °C 42.8 °F /  6 °C 29.8in /  1008.53hPa N 8.1mph /  13km/h 6.2mph /  10km/h 65% 0in /  0mm 415 W/m2
08:29 55.4 °F /  13 °C 42.8 °F /  6 °C 29.8in /  1008.5hPa N 8.7mph /  14km/h 6.2mph /  10km/h 63% 0in /  0mm 429 W/m2
08:34 55.4 °F /  13 °C 42.8 °F /  6 °C 29.8in /  1008.5hPa N 7.5mph /  12km/h 6.8mph /  11km/h 64% 0in /  0mm 438 W/m2
08:39 55.4 °F /  13 °C 42.8 °F /  6 °C 29.8in /  1008.43hPa N 6.8mph /  11km/h 5.6mph /  9km/h 63% 0in /  0mm 450 W/m2
08:44 55.4 °F /  13 °C 42.8 °F /  6 °C 29.8in /  1008.47hPa N 6.8mph /  11km/h 6.2mph /  10km/h 63% 0in /  0mm 461 W/m2
08:49 55.4 °F /  13 °C 42.8 °F /  6 °C 29.8in /  1008.4hPa N 6.2mph /  10km/h 5.6mph /  9km/h 62% 0in /  0mm 471 W/m2
08:54 55.4 °F /  13 °C 42.8 °F /  6 °C 29.8in /  1008.4hPa N 5mph /  8km/h 4.3mph /  7km/h 61% 0in /  0mm 480 W/m2
08:59 57.2 °F /  14 °C 42.8 °F /  6 °C 29.8in /  1008.4hPa N 5mph /  8km/h 4.3mph /  7km/h 61% 0in /  0mm 492 W/m2
09:04 57.2 °F /  14 °C 42.8 °F /  6 °C 29.8in /  1008.47hPa N 6.2mph /  10km/h 6.2mph /  10km/h 60% 0in /  0mm 501 W/m2
09:09 57.2 °F /  14 °C 42.8 °F /  6 °C 29.8in /  1008.47hPa N 5.6mph /  9km/h 5.6mph /  9km/h 61% 0in /  0mm 510 W/m2
09:14 57.2 °F /  14 °C 42.8 °F /  6 °C 29.8in /  1008.47hPa N 4.3mph /  7km/h 3.7mph /  6km/h 60% 0in /  0mm 522 W/m2
09:19 57.2 °F /  14 °C 42.8 °F /  6 °C 29.8in /  1008.43hPa N 4.3mph /  7km/h 4.3mph /  7km/h 59% 0in /  0mm 531 W/m2
09:24 57.2 °F /  14 °C 42.8 °F /  6 °C 29.8in /  1008.4hPa N 3.7mph /  6km/h 3.7mph /  6km/h 59% 0in /  0mm 540 W/m2
09:29 57.2 °F /  14 °C 42.8 °F /  6 °C 29.8in /  1008.36hPa N 3.1mph /  5km/h 2.5mph /  4km/h 58% 0in /  0mm 552 W/m2
09:34 57.2 °F /  14 °C 44.6 °F /  7 °C 29.8in /  1008.33hPa NNE 3.1mph /  5km/h 3.1mph /  5km/h 59% 0in /  0mm 563 W/m2
09:39 59 °F /  15 °C 42.8 °F /  6 °C 29.8in /  1008.26hPa NE 1.9mph /  3km/h 1.2mph /  2km/h 54% 0in /  0mm 573 W/m2
09:44 59 °F /  15 °C 41 °F /  5 °C 29.8in /  1008.26hPa NE 3.7mph /  6km/h 5mph /  8km/h 53% 0in /  0mm 584 W/m2
09:49 57.2 °F /  14 °C 41 °F /  5 °C 29.8in /  1008.23hPa NE 8.7mph /  14km/h 6.2mph /  10km/h 55% 0in /  0mm 592 W/m2
09:54 57.2 °F /  14 °C 41 °F /  5 °C 29.8in /  1008.23hPa NE 8.7mph /  14km/h 7.5mph /  12km/h 55% 0in /  0mm 601 W/m2
09:59 57.2 °F /  14 °C 41 °F /  5 °C 29.8in /  1008.16hPa ENE 7.5mph /  12km/h 6.8mph /  11km/h 55% 0in /  0mm 610 W/m2
10:04 57.2 °F /  14 °C 41 °F /  5 °C 29.8in /  1008.13hPa ENE 7.5mph /  12km/h 6.8mph /  11km/h 56% 0in /  0mm 619 W/m2
10:09 57.2 °F /  14 °C 41 °F /  5 °C 29.8in /  1008.09hPa NE 8.7mph /  14km/h 6.8mph /  11km/h 55% 0in /  0mm 628 W/m2
10:14 57.2 °F /  14 °C 42.8 °F /  6 °C 29.8in /  1008.09hPa ENE 9.9mph /  16km/h 7.5mph /  12km/h 59% 0in /  0mm 636 W/m2
10:19 57.2 °F /  14 °C 41 °F /  5 °C 29.8in /  1007.96hPa NNE 9.9mph /  16km/h 8.7mph /  14km/h 57% 0in /  0mm 645 W/m2
10:24 57.2 °F /  14 °C 42.8 °F /  6 °C 29.8in /  1007.99hPa NNE 10.6mph /  17km/h 8.7mph /  14km/h 58% 0in /  0mm 652 W/m2
10:29 55.4 °F /  13 °C 42.8 °F /  6 °C 29.8in /  1007.96hPa NNE 10.6mph /  17km/h 8.7mph /  14km/h 60% 0in /  0mm 661 W/m2
10:34 55.4 °F /  13 °C 42.8 °F /  6 °C 29.8in /  1007.86hPa NNE 11.2mph /  18km/h 8.7mph /  14km/h 61% 0in /  0mm 668 W/m2
10:39 57.2 °F /  14 °C 42.8 °F /  6 °C 29.8in /  1007.86hPa NE 9.3mph /  15km/h 7.5mph /  12km/h 61% 0in /  0mm 677 W/m2
10:44 57.2 °F /  14 °C 42.8 °F /  6 °C 29.8in /  1007.72hPa NE 10.6mph /  17km/h 8.1mph /  13km/h 60% 0in /  0mm 686 W/m2
10:49 57.2 °F /  14 °C 42.8 °F /  6 °C 29.8in /  1007.69hPa NE 10.6mph /  17km/h 9.9mph /  16km/h 59% 0in /  0mm 693 W/m2
10:54 57.2 °F /  14 °C 42.8 °F /  6 °C 29.8in /  1007.72hPa NE 10.6mph /  17km/h 8.7mph /  14km/h 61% 0in /  0mm 700 W/m2
10:59 55.4 °F /  13 °C 42.8 °F /  6 °C 29.8in /  1007.69hPa NNE 10.6mph /  17km/h 8.7mph /  14km/h 60% 0in /  0mm 705 W/m2
11:04 55.4 °F /  13 °C 42.8 °F /  6 °C 29.8in /  1007.69hPa NE 11.2mph /  18km/h 8.7mph /  14km/h 62% 0in /  0mm 712 W/m2
11:09 55.4 °F /  13 °C 42.8 °F /  6 °C 29.8in /  1007.72hPa NNE 11.2mph /  18km/h 10.6mph /  17km/h 61% 0in /  0mm 717 W/m2
11:14 55.4 °F /  13 °C 42.8 °F /  6 °C 29.8in /  1007.65hPa NNE 9.9mph /  16km/h 8.7mph /  14km/h 62% 0in /  0mm 724 W/m2
11:19 55.4 °F /  13 °C 42.8 °F /  6 °C 29.8in /  1007.65hPa NE 10.6mph /  17km/h 8.7mph /  14km/h 62% 0in /  0mm 731 W/m2
11:24 55.4 °F /  13 °C 42.8 °F /  6 °C 29.8in /  1007.62hPa NE 9.9mph /  16km/h 8.1mph /  13km/h 62% 0in /  0mm 738 W/m2
11:29 55.4 °F /  13 °C 44.6 °F /  7 °C 29.8in /  1007.62hPa E 9.9mph /  16km/h 8.7mph /  14km/h 65% 0in /  0mm 744 W/m2
11:34 55.4 °F /  13 °C 42.8 °F /  6 °C 29.8in /  1007.65hPa NNE 9.9mph /  16km/h 9.9mph /  16km/h 62% 0in /  0mm 747 W/m2
11:39 55.4 °F /  13 °C 42.8 °F /  6 °C 29.8in /  1007.69hPa NE 9.3mph /  15km/h 8.1mph /  13km/h 63% 0in /  0mm 752 W/m2
11:44 55.4 °F /  13 °C 44.6 °F /  7 °C 29.8in /  1007.65hPa NE 9.9mph /  16km/h 8.1mph /  13km/h 65% 0in /  0mm 758 W/m2
11:49 55.4 °F /  13 °C 44.6 °F /  7 °C 29.8in /  1007.59hPa ENE 9.9mph /  16km/h 8.1mph /  13km/h 65% 0in /  0mm 763 W/m2
11:54 55.4 °F /  13 °C 44.6 °F /  7 °C 29.8in /  1007.59hPa NNE 9.9mph /  16km/h 8.7mph /  14km/h 65% 0in /  0mm 765 W/m2
11:59 55.4 °F /  13 °C 44.6 °F /  7 °C 29.8in /  1007.55hPa NE 8.7mph /  14km/h 7.5mph /  12km/h 66% 0in /  0mm 772 W/m2
12:04 55.4 °F /  13 °C 44.6 °F /  7 °C 29.8in /  1007.59hPa E 9.3mph /  15km/h 7.5mph /  12km/h 66% 0in /  0mm 777 W/m2
12:09 55.4 °F /  13 °C 44.6 °F /  7 °C 29.8in /  1007.62hPa NE 8.1mph /  13km/h 7.5mph /  12km/h 64% 0in /  0mm 780 W/m2
12:14 55.4 °F /  13 °C 44.6 °F /  7 °C 29.8in /  1007.55hPa NE 8.7mph /  14km/h 7.5mph /  12km/h 65% 0in /  0mm 784 W/m2
12:19 57.2 °F /  14 °C 44.6 °F /  7 °C 29.8in /  1007.52hPa NE 8.1mph /  13km/h 6.8mph /  11km/h 64% 0in /  0mm 789 W/m2
12:24 57.2 °F /  14 °C 44.6 °F /  7 °C 29.8in /  1007.52hPa E 8.7mph /  14km/h 8.1mph /  13km/h 64% 0in /  0mm 795 W/m2
12:29 55.4 °F /  13 °C 44.6 °F /  7 °C 29.8in /  1007.48hPa N 9.9mph /  16km/h 8.1mph /  13km/h 65% 0in /  0mm 800 W/m2
12:34 55.4 °F /  13 °C 44.6 °F /  7 °C 29.8in /  1007.48hPa N 9.9mph /  16km/h 8.7mph /  14km/h 65% 0in /  0mm 805 W/m2
12:39 55.4 °F /  13 °C 44.6 °F /  7 °C 29.8in /  1007.45hPa N 9.3mph /  15km/h 7.5mph /  12km/h 66% 0in /  0mm 814 W/m2
12:44 55.4 °F /  13 °C 44.6 °F /  7 °C 29.8in /  1007.42hPa ESE 9.3mph /  15km/h 6.8mph /  11km/h 66% 0in /  0mm 824 W/m2
12:49 57.2 °F /  14 °C 44.6 °F /  7 °C 29.8in /  1007.42hPa N 8.7mph /  14km/h 6.8mph /  11km/h 65% 0in /  0mm 830 W/m2
12:54 57.2 °F /  14 °C 44.6 °F /  7 °C 29.8in /  1007.38hPa N 9.9mph /  16km/h 9.9mph /  16km/h 65% 0in /  0mm 835 W/m2
12:59 55.4 °F /  13 °C 44.6 °F /  7 °C 29.8in /  1007.38hPa N 11.2mph /  18km/h 8.7mph /  14km/h 67% 0in /  0mm 854 W/m2
13:04 55.4 °F /  13 °C 44.6 °F /  7 °C 29.8in /  1007.35hPa N 11.2mph /  18km/h 10.6mph /  17km/h 66% 0in /  0mm 853 W/m2
13:09 55.4 °F /  13 °C 44.6 °F /  7 °C 29.7in /  1007.32hPa N 9.9mph /  16km/h 9.3mph /  15km/h 66% 0in /  0mm 817 W/m2
13:14 55.4 °F /  13 °C 44.6 °F /  7 °C 29.7in /  1007.28hPa N 8.7mph /  14km/h 8.1mph /  13km/h 64% 0in /  0mm 842 W/m2
13:19 55.4 °F /  13 °C 44.6 °F /  7 °C 29.7in /  1007.21hPa N 9.9mph /  16km/h 8.1mph /  13km/h 64% 0in /  0mm 860 W/m2
13:24 55.4 °F /  13 °C 44.6 °F /  7 °C 29.7in /  1007.15hPa N 9.3mph /  15km/h 7.5mph /  12km/h 64% 0in /  0mm 875 W/m2
13:29 57.2 °F /  14 °C 44.6 °F /  7 °C 29.7in /  1007.15hPa N 8.1mph /  13km/h 6.8mph /  11km/h 63% 0in /  0mm 877 W/m2
13:34 55.4 °F /  13 °C 44.6 °F /  7 °C 29.7in /  1007.08hPa NNE 11.2mph /  18km/h 9.9mph /  16km/h 64% 0in /  0mm 856 W/m2
13:39 55.4 °F /  13 °C 44.6 °F /  7 °C 29.7in /  1007.08hPa N 11.2mph /  18km/h 9.9mph /  16km/h 64% 0in /  0mm 761 W/m2
13:44 55.4 °F /  13 °C 42.8 °F /  6 °C 29.7in /  1007.04hPa N 10.6mph /  17km/h 9.3mph /  15km/h 63% 0in /  0mm 729 W/m2
13:49 55.4 °F /  13 °C 42.8 °F /  6 °C 29.7in /  1007.04hPa N 11.2mph /  18km/h 9.9mph /  16km/h 64% 0in /  0mm 719 W/m2
13:54 55.4 °F /  13 °C 44.6 °F /  7 °C 29.7in /  1007.01hPa N 11.8mph /  19km/h 9.9mph /  16km/h 65% 0in /  0mm 719 W/m2
13:59 55.4 °F /  13 °C 42.8 °F /  6 °C 29.7in /  1006.98hPa N 9.9mph /  16km/h 8.7mph /  14km/h 64% 0in /  0mm 731 W/m2
14:04 55.4 °F /  13 °C 42.8 °F /  6 °C 29.7in /  1006.98hPa N 9.3mph /  15km/h 8.7mph /  14km/h 63% 0in /  0mm 710 W/m2
14:09 55.4 °F /  13 °C 42.8 °F /  6 °C 29.7in /  1006.98hPa N 9.9mph /  16km/h 10.6mph /  17km/h 63% 0in /  0mm 759 W/m2
14:14 55.4 °F /  13 °C 44.6 °F /  7 °C 29.7in /  1006.94hPa N 9.9mph /  16km/h 9.3mph /  15km/h 63% 0in /  0mm 728 W/m2
14:19 55.4 °F /  13 °C 42.8 °F /  6 °C 29.7in /  1006.87hPa N 10.6mph /  17km/h 9.3mph /  15km/h 62% 0in /  0mm 708 W/m2
14:24 55.4 °F /  13 °C 42.8 °F /  6 °C 29.7in /  1006.84hPa N 11.2mph /  18km/h 8.7mph /  14km/h 63% 0in /  0mm 758 W/m2
14:29 55.4 °F /  13 °C 44.6 °F /  7 °C 29.7in /  1006.77hPa N 11.2mph /  18km/h 9.3mph /  15km/h 63% 0in /  0mm 738 W/m2
14:34 57.2 °F /  14 °C 44.6 °F /  7 °C 29.7in /  1006.71hPa N 10.6mph /  17km/h 11.2mph /  18km/h 63% 0in /  0mm 800 W/m2
14:39 55.4 °F /  13 °C 44.6 °F /  7 °C 29.7in /  1006.67hPa N 11.2mph /  18km/h 9.3mph /  15km/h 64% 0in /  0mm 800 W/m2
14:44 55.4 °F /  13 °C 44.6 °F /  7 °C 29.7in /  1006.54hPa N 11.2mph /  18km/h 10.6mph /  17km/h 64% 0in /  0mm 742 W/m2
14:49 57.2 °F /  14 °C 44.6 °F /  7 °C 29.7in /  1006.54hPa N 10.6mph /  17km/h 8.7mph /  14km/h 65% 0in /  0mm 645 W/m2
14:54 57.2 °F /  14 °C 44.6 °F /  7 °C 29.7in /  1006.5hPa N 10.6mph /  17km/h 8.1mph /  13km/h 65% 0in /  0mm 647 W/m2
14:59 57.2 °F /  14 °C 44.6 °F /  7 °C 29.7in /  1006.5hPa N 9.9mph /  16km/h 7.5mph /  12km/h 63% 0in /  0mm 673 W/m2
15:04 57.2 °F /  14 °C 44.6 °F /  7 °C 29.7in /  1006.47hPa N 9.3mph /  15km/h 8.7mph /  14km/h 61% 0in /  0mm 705 W/m2
15:09 57.2 °F /  14 °C 44.6 °F /  7 °C 29.7in /  1006.43hPa N 8.7mph /  14km/h 6.8mph /  11km/h 63% 0in /  0mm 663 W/m2
15:14 57.2 °F /  14 °C 44.6 °F /  7 °C 29.7in /  1006.37hPa N 10.6mph /  17km/h 8.7mph /  14km/h 61% 0in /  0mm 656 W/m2
15:19 57.2 °F /  14 °C 44.6 °F /  7 °C 29.7in /  1006.37hPa N 11.2mph /  18km/h 8.7mph /  14km/h 63% 0in /  0mm 615 W/m2
15:24 57.2 °F /  14 °C 44.6 °F /  7 °C 29.7in /  1006.37hPa N 11.2mph /  18km/h 10.6mph /  17km/h 63% 0in /  0mm 605 W/m2
15:29 57.2 °F /  14 °C 44.6 °F /  7 °C 29.7in /  1006.3hPa N 11.2mph /  18km/h 10.6mph /  17km/h 61% 0in /  0mm 657 W/m2
15:34 57.2 °F /  14 °C 44.6 °F /  7 °C 29.7in /  1006.27hPa N 11.2mph /  18km/h 9.9mph /  16km/h 62% 0in /  0mm 635 W/m2
15:39 57.2 °F /  14 °C 42.8 °F /  6 °C 29.7in /  1006.23hPa N 11.2mph /  18km/h 9.9mph /  16km/h 60% 0in /  0mm 587 W/m2
15:44 57.2 °F /  14 °C 42.8 °F /  6 °C 29.7in /  1006.23hPa N 11.2mph /  18km/h 8.7mph /  14km/h 60% 0in /  0mm 573 W/m2
15:49 57.2 °F /  14 °C 44.6 °F /  7 °C 29.7in /  1006.23hPa N 10.6mph /  17km/h 8.7mph /  14km/h 63% 0in /  0mm 584 W/m2
15:54 57.2 °F /  14 °C 44.6 °F /  7 °C 29.7in /  1006.16hPa N 10.6mph /  17km/h 8.7mph /  14km/h 63% 0in /  0mm 566 W/m2
15:59 57.2 °F /  14 °C 46.4 °F /  8 °C 29.7in /  1006.13hPa N 11.2mph /  18km/h 10.6mph /  17km/h 66% 0in /  0mm 571 W/m2
16:04 57.2 °F /  14 °C 44.6 °F /  7 °C 29.7in /  1006.13hPa N 8.1mph /  13km/h 6.8mph /  11km/h 62% 0in /  0mm 526 W/m2
16:09 57.2 °F /  14 °C 44.6 °F /  7 °C 29.7in /  1006.1hPa N 10.6mph /  17km/h 8.1mph /  13km/h 60% 0in /  0mm 529 W/m2
16:14 57.2 °F /  14 °C 42.8 °F /  6 °C 29.7in /  1006.1hPa N 11.8mph /  19km/h 9.9mph /  16km/h 58% 0in /  0mm 533 W/m2
16:19 57.2 °F /  14 °C 42.8 °F /  6 °C 29.7in /  1006.03hPa N 10.6mph /  17km/h 8.1mph /  13km/h 58% 0in /  0mm 519 W/m2
16:24 57.2 °F /  14 °C 42.8 °F /  6 °C 29.7in /  1005.96hPa N 10.6mph /  17km/h 9.3mph /  15km/h 57% 0in /  0mm 582 W/m2
16:29 57.2 °F /  14 °C 42.8 °F /  6 °C 29.7in /  1005.93hPa N 12.4mph /  20km/h 12.4mph /  20km/h 55% 0in /  0mm 582 W/m2
16:34 57.2 °F /  14 °C 44.6 °F /  7 °C 29.7in /  1005.83hPa N 11.2mph /  18km/h 11.8mph /  19km/h 59% 0in /  0mm 559 W/m2
16:39 59 °F /  15 °C 42.8 °F /  6 °C 29.7in /  1005.76hPa N 11.8mph /  19km/h 11.8mph /  19km/h 57% 0in /  0mm 610 W/m2
16:44 59 °F /  15 °C 44.6 °F /  7 °C 29.7in /  1005.76hPa N 9.9mph /  16km/h 8.1mph /  13km/h 58% 0in /  0mm 559 W/m2
16:49 59 °F /  15 °C 44.6 °F /  7 °C 29.7in /  1005.66hPa N 12.4mph /  20km/h 10.6mph /  17km/h 60% 0in /  0mm 554 W/m2
16:54 59 °F /  15 °C 44.6 °F /  7 °C 29.7in /  1005.62hPa N 12.4mph /  20km/h 9.9mph /  16km/h 60% 0in /  0mm 487 W/m2
16:59 57.2 °F /  14 °C 44.6 °F /  7 °C 29.7in /  1005.59hPa N 11.8mph /  19km/h 9.3mph /  15km/h 61% 0in /  0mm 431 W/m2
17:04 57.2 °F /  14 °C 44.6 °F /  7 °C 29.7in /  1005.52hPa N 10.6mph /  17km/h 8.7mph /  14km/h 61% 0in /  0mm 387 W/m2
17:09 57.2 °F /  14 °C 44.6 °F /  7 °C 29.7in /  1005.52hPa N 10.6mph /  17km/h 8.7mph /  14km/h 63% 0in /  0mm 378 W/m2
17:14 57.2 °F /  14 °C 48.2 °F /  9 °C 29.7in /  1005.49hPa N 11.2mph /  18km/h 9.3mph /  15km/h 69% 0in /  0mm 410 W/m2
17:19 57.2 °F /  14 °C 48.2 °F /  9 °C 29.7in /  1005.49hPa N 13mph /  21km/h 11.8mph /  19km/h 72% 0in /  0mm 445 W/m2
17:24 57.2 °F /  14 °C 48.2 °F /  9 °C 29.7in /  1005.45hPa N 12.4mph /  20km/h 10.6mph /  17km/h 73% 0in /  0mm 462 W/m2
17:29 57.2 °F /  14 °C 48.2 °F /  9 °C 29.7in /  1005.38hPa N 9.3mph /  15km/h 8.7mph /  14km/h 74% 0in /  0mm 443 W/m2
17:34 57.2 °F /  14 °C 50 °F /  10 °C 29.7in /  1005.38hPa N 11.2mph /  18km/h 11.2mph /  18km/h 74% 0in /  0mm 413 W/m2
17:39 57.2 °F /  14 °C 48.2 °F /  9 °C 29.7in /  1005.38hPa N 11.2mph /  18km/h 11.8mph /  19km/h 74% 0in /  0mm 387 W/m2
17:44 57.2 °F /  14 °C 48.2 °F /  9 °C 29.7in /  1005.32hPa N 11.8mph /  19km/h 10.6mph /  17km/h 75% 0in /  0mm 360 W/m2
17:49 57.2 °F /  14 °C 48.2 °F /  9 °C 29.7in /  1005.28hPa N 11.8mph /  19km/h 10.6mph /  17km/h 75% 0in /  0mm 318 W/m2
17:54 57.2 °F /  14 °C 50 °F /  10 °C 29.7in /  1005.15hPa N 10.6mph /  17km/h 9.9mph /  16km/h 75% 0in /  0mm 322 W/m2
17:59 57.2 °F /  14 °C 50 °F /  10 °C 29.7in /  1005.11hPa N 12.4mph /  20km/h 9.9mph /  16km/h 75% 0in /  0mm 309 W/m2
18:04 57.2 °F /  14 °C 50 °F /  10 °C 29.7in /  1005.01hPa N 11.2mph /  18km/h 9.9mph /  16km/h 75% 0in /  0mm 306 W/m2
18:09 57.2 °F /  14 °C 50 °F /  10 °C 29.7in /  1004.94hPa N 10.6mph /  17km/h 10.6mph /  17km/h 76% 0in /  0mm 290 W/m2
18:14 57.2 °F /  14 °C 50 °F /  10 °C 29.7in /  1004.84hPa N 10.6mph /  17km/h 9.3mph /  15km/h 76% 0in /  0mm 267 W/m2
Compliments of Weather Underground - 2 mb